sensor_id;sensor_type;location;lat;lon;timestamp;pressure;altitude;pressure_sealevel;temperature;humidity
15604;BME280;7902;49.042;9.092;2023-02-02T00:00:51;99645.56;;;10.43;58.41
15604;BME280;7902;49.042;9.092;2023-02-02T00:03:17;99658.88;;;10.54;58.23
15604;BME280;7902;49.042;9.092;2023-02-02T00:05:45;99639.97;;;10.35;58.87
15604;BME280;7902;49.042;9.092;2023-02-02T00:08:11;99644.81;;;10.41;58.11
15604;BME280;7902;49.042;9.092;2023-02-02T00:10:38;99633.69;;;10.64;57.66
15604;BME280;7902;49.042;9.092;2023-02-02T00:13:03;99632.22;;;10.60;57.53
15604;BME280;7902;49.042;9.092;2023-02-02T00:15:29;99636.56;;;10.47;58.34
15604;BME280;7902;49.042;9.092;2023-02-02T00:17:55;99638.91;;;10.51;57.54
15604;BME280;7902;49.042;9.092;2023-02-02T00:20:21;99622.78;;;10.43;58.46
15604;BME280;7902;49.042;9.092;2023-02-02T00:22:48;99624.00;;;10.52;58.15
15604;BME280;7902;49.042;9.092;2023-02-02T00:25:14;99631.09;;;10.50;58.80
15604;BME280;7902;49.042;9.092;2023-02-02T00:27:40;99633.72;;;10.50;58.01
15604;BME280;7902;49.042;9.092;2023-02-02T00:30:06;99629.88;;;10.55;58.94
15604;BME280;7902;49.042;9.092;2023-02-02T00:32:32;99628.34;;;10.39;57.77
15604;BME280;7902;49.042;9.092;2023-02-02T00:34:58;99612.00;;;10.48;58.74
15604;BME280;7902;49.042;9.092;2023-02-02T00:37:24;99618.72;;;10.52;58.55
15604;BME280;7902;49.042;9.092;2023-02-02T00:39:50;99633.03;;;10.34;59.38
15604;BME280;7902;49.042;9.092;2023-02-02T00:42:16;99620.09;;;10.45;59.08
15604;BME280;7902;49.042;9.092;2023-02-02T00:44:42;99621.19;;;10.41;58.42
15604;BME280;7902;49.042;9.092;2023-02-02T00:47:27;99623.34;;;10.48;59.16
15604;BME280;7902;49.042;9.092;2023-02-02T00:49:53;99622.81;;;10.29;59.53
15604;BME280;7902;49.042;9.092;2023-02-02T00:52:19;99625.72;;;10.39;59.39
15604;BME280;7902;49.042;9.092;2023-02-02T00:54:45;99618.22;;;10.60;58.45
15604;BME280;7902;49.042;9.092;2023-02-02T00:57:12;99626.09;;;10.33;59.98
15604;BME280;7902;49.042;9.092;2023-02-02T00:59:40;99624.09;;;10.36;59.29
15604;BME280;7902;49.042;9.092;2023-02-02T01:02:07;99647.28;;;10.44;59.33
15604;BME280;7902;49.042;9.092;2023-02-02T01:04:33;99624.59;;;10.29;59.54
15604;BME280;7902;49.042;9.092;2023-02-02T01:06:59;99632.66;;;10.40;60.11
15604;BME280;7902;49.042;9.092;2023-02-02T01:09:25;99618.31;;;10.31;59.95
15604;BME280;7902;49.042;9.092;2023-02-02T01:11:51;99629.53;;;10.47;59.76
15604;BME280;7902;49.042;9.092;2023-02-02T01:14:17;99633.97;;;10.33;59.74
15604;BME280;7902;49.042;9.092;2023-02-02T01:16:43;99615.47;;;10.48;59.77
15604;BME280;7902;49.042;9.092;2023-02-02T01:19:12;99620.84;;;10.33;59.21
15604;BME280;7902;49.042;9.092;2023-02-02T01:21:38;99629.75;;;10.30;59.18
15604;BME280;7902;49.042;9.092;2023-02-02T01:24:04;99638.28;;;10.34;59.86
15604;BME280;7902;49.042;9.092;2023-02-02T01:26:30;99635.66;;;10.34;60.55
15604;BME280;7902;49.042;9.092;2023-02-02T01:28:56;99631.31;;;10.47;59.95
15604;BME280;7902;49.042;9.092;2023-02-02T01:31:22;99637.69;;;10.43;60.12
15604;BME280;7902;49.042;9.092;2023-02-02T01:33:49;99633.94;;;10.47;60.00
15604;BME280;7902;49.042;9.092;2023-02-02T01:36:19;99641.19;;;10.29;60.68
15604;BME280;7902;49.042;9.092;2023-02-02T01:38:46;99636.25;;;10.51;60.09
15604;BME280;7902;49.042;9.092;2023-02-02T01:41:23;99641.09;;;10.45;59.38
15604;BME280;7902;49.042;9.092;2023-02-02T01:43:52;99646.72;;;10.39;60.66
15604;BME280;7902;49.042;9.092;2023-02-02T01:46:28;99637.88;;;10.54;60.02
15604;BME280;7902;49.042;9.092;2023-02-02T01:49:08;99648.75;;;10.48;60.60
15604;BME280;7902;49.042;9.092;2023-02-02T01:54:02;99624.38;;;10.46;61.04
15604;BME280;7902;49.042;9.092;2023-02-02T01:56:35;99617.06;;;10.37;60.31
15604;BME280;7902;49.042;9.092;2023-02-02T01:59:03;99615.47;;;10.48;60.95
15604;BME280;7902;49.042;9.092;2023-02-02T02:01:29;99615.59;;;10.33;60.86
15604;BME280;7902;49.042;9.092;2023-02-02T02:03:55;99626.81;;;10.49;60.10
15604;BME280;7902;49.042;9.092;2023-02-02T02:06:21;99614.66;;;10.34;60.03
15604;BME280;7902;49.042;9.092;2023-02-02T02:08:56;99614.09;;;10.29;60.83
15604;BME280;7902;49.042;9.092;2023-02-02T02:11:25;99623.63;;;10.44;60.70
15604;BME280;7902;49.042;9.092;2023-02-02T02:13:53;99632.44;;;10.43;60.82
15604;BME280;7902;49.042;9.092;2023-02-02T02:17:13;99624.75;;;10.54;60.31
15604;BME280;7902;49.042;9.092;2023-02-02T02:29:21;99635.28;;;10.40;60.84
15604;BME280;7902;49.042;9.092;2023-02-02T02:32:07;99623.53;;;10.45;61.52
15604;BME280;7902;49.042;9.092;2023-02-02T02:37:21;99620.28;;;10.28;61.48
15604;BME280;7902;49.042;9.092;2023-02-02T02:40:10;99623.31;;;10.22;62.51
15604;BME280;7902;49.042;9.092;2023-02-02T02:42:41;99626.44;;;10.41;61.96
15604;BME280;7902;49.042;9.092;2023-02-02T02:45:10;99638.06;;;10.37;62.11
15604;BME280;7902;49.042;9.092;2023-02-02T02:47:38;99642.34;;;10.25;62.69
15604;BME280;7902;49.042;9.092;2023-02-02T02:50:06;99655.03;;;10.45;62.09
15604;BME280;7902;49.042;9.092;2023-02-02T02:52:33;99643.25;;;10.38;62.46
15604;BME280;7902;49.042;9.092;2023-02-02T02:55:00;99636.41;;;10.36;61.61
15604;BME280;7902;49.042;9.092;2023-02-02T03:00:37;99647.09;;;10.33;62.51
15604;BME280;7902;49.042;9.092;2023-02-02T03:08:38;99656.09;;;10.29;61.50
15604;BME280;7902;49.042;9.092;2023-02-02T03:11:07;99648.69;;;10.35;61.78
15604;BME280;7902;49.042;9.092;2023-02-02T03:13:35;99650.66;;;10.18;62.43
15604;BME280;7902;49.042;9.092;2023-02-02T03:16:01;99649.97;;;10.42;61.08
15604;BME280;7902;49.042;9.092;2023-02-02T03:18:29;99654.91;;;10.61;61.05
15604;BME280;7902;49.042;9.092;2023-02-02T03:20:56;99658.50;;;10.46;61.59
15604;BME280;7902;49.042;9.092;2023-02-02T03:23:22;99660.72;;;10.25;62.48
15604;BME280;7902;49.042;9.092;2023-02-02T03:25:48;99648.44;;;10.26;61.81
15604;BME280;7902;49.042;9.092;2023-02-02T03:28:15;99645.31;;;10.33;62.19
15604;BME280;7902;49.042;9.092;2023-02-02T03:30:43;99651.97;;;10.25;61.53
15604;BME280;7902;49.042;9.092;2023-02-02T03:33:11;99652.19;;;10.22;62.70
15604;BME280;7902;49.042;9.092;2023-02-02T03:35:37;99652.44;;;10.31;61.91
15604;BME280;7902;49.042;9.092;2023-02-02T03:38:03;99660.31;;;10.17;62.59
15604;BME280;7902;49.042;9.092;2023-02-02T03:40:29;99660.16;;;10.20;62.17
15604;BME280;7902;49.042;9.092;2023-02-02T03:42:55;99668.19;;;10.17;62.46
15604;BME280;7902;49.042;9.092;2023-02-02T03:45:21;99670.72;;;10.33;61.66
15604;BME280;7902;49.042;9.092;2023-02-02T03:47:47;99672.19;;;10.37;61.33
15604;BME280;7902;49.042;9.092;2023-02-02T03:50:13;99675.22;;;10.31;62.36
15604;BME280;7902;49.042;9.092;2023-02-02T03:52:39;99673.69;;;10.41;61.22
15604;BME280;7902;49.042;9.092;2023-02-02T03:55:05;99668.19;;;10.17;62.35
15604;BME280;7902;49.042;9.092;2023-02-02T03:57:31;99675.41;;;10.28;61.91
15604;BME280;7902;49.042;9.092;2023-02-02T03:59:57;99671.50;;;10.21;62.38
15604;BME280;7902;49.042;9.092;2023-02-02T04:02:23;99664.81;;;10.29;61.31
15604;BME280;7902;49.042;9.092;2023-02-02T04:04:49;99669.13;;;10.44;60.78
15604;BME280;7902;49.042;9.092;2023-02-02T04:07:15;99682.06;;;10.33;62.29
15604;BME280;7902;49.042;9.092;2023-02-02T04:09:41;99678.78;;;10.44;61.90
15604;BME280;7902;49.042;9.092;2023-02-02T04:12:07;99685.03;;;10.41;61.25
15604;BME280;7902;49.042;9.092;2023-02-02T04:14:33;99677.31;;;10.26;61.56
15604;BME280;7902;49.042;9.092;2023-02-02T04:16:59;99677.19;;;10.27;61.79
15604;BME280;7902;49.042;9.092;2023-02-02T04:19:24;99677.66;;;10.20;62.32
15604;BME280;7902;49.042;9.092;2023-02-02T04:21:52;99678.88;;;10.28;61.76
15604;BME280;7902;49.042;9.092;2023-02-02T04:24:17;99682.06;;;10.33;62.23
15604;BME280;7902;49.042;9.092;2023-02-02T04:26:44;99672.41;;;10.20;62.40
15604;BME280;7902;49.042;9.092;2023-02-02T04:29:10;99685.44;;;10.35;61.44
15604;BME280;7902;49.042;9.092;2023-02-02T04:31:36;99689.44;;;10.41;61.85
15604;BME280;7902;49.042;9.092;2023-02-02T04:34:02;99684.75;;;10.46;61.85
15604;BME280;7902;49.042;9.092;2023-02-02T04:36:28;99708.22;;;10.35;61.57
15604;BME280;7902;49.042;9.092;2023-02-02T04:38:54;99692.56;;;10.33;61.74
15604;BME280;7902;49.042;9.092;2023-02-02T04:41:21;99703.53;;;10.40;61.34
15604;BME280;7902;49.042;9.092;2023-02-02T04:43:47;99689.66;;;10.38;61.62
15604;BME280;7902;49.042;9.092;2023-02-02T04:46:13;99703.91;;;10.48;61.63
15604;BME280;7902;49.042;9.092;2023-02-02T04:48:39;99687.78;;;10.40;61.17
15604;BME280;7902;49.042;9.092;2023-02-02T04:51:09;99697.88;;;10.46;61.67
15604;BME280;7902;49.042;9.092;2023-02-02T04:53:35;99710.94;;;10.47;61.82
15604;BME280;7902;49.042;9.092;2023-02-02T04:56:06;99721.34;;;10.35;61.32
15604;BME280;7902;49.042;9.092;2023-02-02T04:58:33;99728.94;;;10.53;60.88
15604;BME280;7902;49.042;9.092;2023-02-02T05:00:58;99722.28;;;10.48;60.88
15604;BME280;7902;49.042;9.092;2023-02-02T05:03:24;99737.56;;;10.41;60.75
15604;BME280;7902;49.042;9.092;2023-02-02T05:05:50;99740.75;;;10.46;61.43
15604;BME280;7902;49.042;9.092;2023-02-02T05:08:16;99755.91;;;10.70;61.17
15604;BME280;7902;49.042;9.092;2023-02-02T05:10:42;99748.72;;;10.45;61.40
15604;BME280;7902;49.042;9.092;2023-02-02T05:13:08;99735.88;;;10.40;60.95
15604;BME280;7902;49.042;9.092;2023-02-02T05:15:34;99733.91;;;10.44;61.52
15604;BME280;7902;49.042;9.092;2023-02-02T05:18:00;99736.25;;;10.48;60.70
15604;BME280;7902;49.042;9.092;2023-02-02T05:20:26;99732.50;;;10.38;61.17
15604;BME280;7902;49.042;9.092;2023-02-02T05:22:52;99736.53;;;10.44;61.84
15604;BME280;7902;49.042;9.092;2023-02-02T05:25:18;99726.97;;;10.43;62.04
15604;BME280;7902;49.042;9.092;2023-02-02T05:27:45;99739.53;;;10.52;60.58
15604;BME280;7902;49.042;9.092;2023-02-02T05:30:12;99747.13;;;10.56;61.62
15604;BME280;7902;49.042;9.092;2023-02-02T05:32:39;99749.47;;;10.33;62.20
15604;BME280;7902;49.042;9.092;2023-02-02T05:35:05;99747.22;;;10.41;62.07
15604;BME280;7902;49.042;9.092;2023-02-02T05:37:31;99744.59;;;10.41;61.78
15604;BME280;7902;49.042;9.092;2023-02-02T05:39:57;99751.63;;;10.40;61.61
15604;BME280;7902;49.042;9.092;2023-02-02T05:42:23;99744.03;;;10.36;61.43
15604;BME280;7902;49.042;9.092;2023-02-02T05:44:49;99740.47;;;10.37;61.44
15604;BME280;7902;49.042;9.092;2023-02-02T05:47:15;99751.53;;;10.42;60.85
15604;BME280;7902;49.042;9.092;2023-02-02T05:49:41;99749.25;;;10.50;61.58
15604;BME280;7902;49.042;9.092;2023-02-02T05:52:10;99750.22;;;10.21;61.57
15604;BME280;7902;49.042;9.092;2023-02-02T05:54:40;99756.78;;;10.28;61.48
15604;BME280;7902;49.042;9.092;2023-02-02T05:57:06;99749.28;;;10.36;62.19
15604;BME280;7902;49.042;9.092;2023-02-02T05:59:31;99743.38;;;10.32;62.29
15604;BME280;7902;49.042;9.092;2023-02-02T06:01:57;99740.66;;;10.48;60.88
15604;BME280;7902;49.042;9.092;2023-02-02T06:04:23;99747.41;;;10.38;61.75
15604;BME280;7902;49.042;9.092;2023-02-02T06:06:49;99749.38;;;10.48;61.85
15604;BME280;7902;49.042;9.092;2023-02-02T06:09:15;99750.03;;;10.38;61.83
15604;BME280;7902;49.042;9.092;2023-02-02T06:11:44;99754.16;;;10.42;61.43
15604;BME280;7902;49.042;9.092;2023-02-02T06:14:10;99731.84;;;10.49;61.05
15604;BME280;7902;49.042;9.092;2023-02-02T06:16:36;99754.16;;;10.56;61.08
15604;BME280;7902;49.042;9.092;2023-02-02T06:19:02;99748.72;;;10.45;61.17
15604;BME280;7902;49.042;9.092;2023-02-02T06:21:28;99757.72;;;10.41;61.90
15604;BME280;7902;49.042;9.092;2023-02-02T06:23:57;99759.59;;;10.39;62.13
15604;BME280;7902;49.042;9.092;2023-02-02T06:26:23;99766.63;;;10.24;62.56
15604;BME280;7902;49.042;9.092;2023-02-02T06:28:51;99765.56;;;10.55;61.61
15604;BME280;7902;49.042;9.092;2023-02-02T06:31:18;99762.59;;;10.33;61.86
15604;BME280;7902;49.042;9.092;2023-02-02T06:33:45;99768.59;;;10.35;61.50
15604;BME280;7902;49.042;9.092;2023-02-02T06:36:11;99772.72;;;10.53;61.19
15604;BME280;7902;49.042;9.092;2023-02-02T06:38:37;99771.13;;;10.36;62.31
15604;BME280;7902;49.042;9.092;2023-02-02T06:41:03;99772.94;;;10.36;62.49
15604;BME280;7902;49.042;9.092;2023-02-02T06:43:29;99779.19;;;10.47;60.96
15604;BME280;7902;49.042;9.092;2023-02-02T06:45:58;99765.69;;;10.53;61.54
15604;BME280;7902;49.042;9.092;2023-02-02T06:48:25;99763.53;;;10.32;61.49
15604;BME280;7902;49.042;9.092;2023-02-02T06:50:51;99774.88;;;10.46;62.08
15604;BME280;7902;49.042;9.092;2023-02-02T06:53:18;99766.34;;;10.43;61.66
15604;BME280;7902;49.042;9.092;2023-02-02T06:55:55;99771.41;;;10.46;61.48
15604;BME280;7902;49.042;9.092;2023-02-02T06:58:21;99776.00;;;10.42;61.34
15604;BME280;7902;49.042;9.092;2023-02-02T07:00:47;99773.44;;;10.27;61.90
15604;BME280;7902;49.042;9.092;2023-02-02T07:03:14;99778.06;;;10.37;61.40
15604;BME280;7902;49.042;9.092;2023-02-02T07:05:40;99769.81;;;10.29;62.29
15604;BME280;7902;49.042;9.092;2023-02-02T07:08:06;99766.53;;;10.40;61.71
15604;BME280;7902;49.042;9.092;2023-02-02T07:10:32;99765.41;;;10.30;62.35
15604;BME280;7902;49.042;9.092;2023-02-02T07:12:58;99761.66;;;10.20;62.05
15604;BME280;7902;49.042;9.092;2023-02-02T07:15:24;99768.41;;;10.38;61.77
15604;BME280;7902;49.042;9.092;2023-02-02T07:17:50;99770.81;;;10.55;60.91
15604;BME280;7902;49.042;9.092;2023-02-02T07:20:16;99778.72;;;10.55;61.01
15604;BME280;7902;49.042;9.092;2023-02-02T07:22:42;99771.03;;;10.38;61.33
15604;BME280;7902;49.042;9.092;2023-02-02T07:25:08;99780.88;;;10.34;61.89
15604;BME280;7902;49.042;9.092;2023-02-02T07:27:33;99783.97;;;10.41;61.55
15604;BME280;7902;49.042;9.092;2023-02-02T07:29:59;99782.09;;;10.43;62.02
15604;BME280;7902;49.042;9.092;2023-02-02T07:32:25;99786.50;;;10.42;61.93
15604;BME280;7902;49.042;9.092;2023-02-02T07:34:51;99780.97;;;10.47;61.76
15604;BME280;7902;49.042;9.092;2023-02-02T07:37:17;99776.38;;;10.50;61.43
15604;BME280;7902;49.042;9.092;2023-02-02T07:39:43;99786.69;;;10.39;61.63
15604;BME280;7902;49.042;9.092;2023-02-02T07:42:10;99785.28;;;10.48;61.76
15604;BME280;7902;49.042;9.092;2023-02-02T07:44:36;99778.25;;;10.34;61.56
15604;BME280;7902;49.042;9.092;2023-02-02T07:47:02;99781.16;;;10.44;62.47
15604;BME280;7902;49.042;9.092;2023-02-02T07:49:28;99787.91;;;10.62;61.74
15604;BME280;7902;49.042;9.092;2023-02-02T07:51:54;99787.06;;;10.76;60.58
15604;BME280;7902;49.042;9.092;2023-02-02T07:54:20;99793.25;;;10.46;60.96
15604;BME280;7902;49.042;9.092;2023-02-02T07:56:46;99799.56;;;10.58;60.86
15604;BME280;7902;49.042;9.092;2023-02-02T07:59:12;99796.16;;;10.56;61.08
15604;BME280;7902;49.042;9.092;2023-02-02T08:01:38;99805.72;;;10.57;61.30
15604;BME280;7902;49.042;9.092;2023-02-02T08:04:04;99807.72;;;10.53;61.06
15604;BME280;7902;49.042;9.092;2023-02-02T08:06:36;99822.78;;;10.64;61.34
15604;BME280;7902;49.042;9.092;2023-02-02T08:09:04;99846.25;;;10.53;61.29
15604;BME280;7902;49.042;9.092;2023-02-02T08:11:32;99842.84;;;10.51;61.80
15604;BME280;7902;49.042;9.092;2023-02-02T08:14:00;99849.44;;;10.58;61.27
15604;BME280;7902;49.042;9.092;2023-02-02T08:16:27;99836.31;;;10.58;60.57
15604;BME280;7902;49.042;9.092;2023-02-02T08:18:54;99842.31;;;10.74;61.08
15604;BME280;7902;49.042;9.092;2023-02-02T08:21:21;99853.78;;;10.59;61.25
15604;BME280;7902;49.042;9.092;2023-02-02T08:23:47;99862.19;;;10.64;61.24
15604;BME280;7902;49.042;9.092;2023-02-02T08:26:19;99864.06;;;10.62;60.65
15604;BME280;7902;49.042;9.092;2023-02-02T08:28:47;99863.16;;;10.63;61.65
15604;BME280;7902;49.042;9.092;2023-02-02T08:31:16;99859.94;;;10.58;60.67
15604;BME280;7902;49.042;9.092;2023-02-02T08:33:42;99854.59;;;10.60;61.55
15604;BME280;7902;49.042;9.092;2023-02-02T08:36:17;99856.41;;;10.59;61.70
15604;BME280;7902;49.042;9.092;2023-02-02T08:38:44;99863.59;;;10.55;61.56
15604;BME280;7902;49.042;9.092;2023-02-02T08:41:12;99865.28;;;10.71;61.74
15604;BME280;7902;49.042;9.092;2023-02-02T08:43:39;99863.50;;;10.57;61.04
15604;BME280;7902;49.042;9.092;2023-02-02T08:46:06;99860.25;;;10.68;60.84
15604;BME280;7902;49.042;9.092;2023-02-02T08:48:34;99860.53;;;10.77;61.55
15604;BME280;7902;49.042;9.092;2023-02-02T08:51:00;99874.41;;;10.79;60.42
15604;BME280;7902;49.042;9.092;2023-02-02T08:53:26;99869.41;;;10.75;61.12
15604;BME280;7902;49.042;9.092;2023-02-02T08:56:02;99877.41;;;10.73;61.55
15604;BME280;7902;49.042;9.092;2023-02-02T08:58:29;99879.66;;;10.79;61.45
15604;BME280;7902;49.042;9.092;2023-02-02T09:01:06;99866.78;;;10.75;60.34
15604;BME280;7902;49.042;9.092;2023-02-02T09:03:33;99868.97;;;10.54;61.52
15604;BME280;7902;49.042;9.092;2023-02-02T09:06:10;99871.59;;;10.68;60.97
15604;BME280;7902;49.042;9.092;2023-02-02T09:08:36;99868.00;;;10.69;60.69
15604;BME280;7902;49.042;9.092;2023-02-02T09:11:07;99868.50;;;10.76;60.75
15604;BME280;7902;49.042;9.092;2023-02-02T09:13:35;99860.59;;;10.90;60.36
15604;BME280;7902;49.042;9.092;2023-02-02T09:16:02;99862.59;;;10.86;61.22
15604;BME280;7902;49.042;9.092;2023-02-02T09:18:28;99850.75;;;10.79;61.47
15604;BME280;7902;49.042;9.092;2023-02-02T09:20:58;99868.13;;;10.82;60.99
15604;BME280;7902;49.042;9.092;2023-02-02T09:23:25;99862.19;;;10.78;61.11
15604;BME280;7902;49.042;9.092;2023-02-02T09:25:50;99866.50;;;10.93;61.29
15604;BME280;7902;49.042;9.092;2023-02-02T09:28:16;99860.69;;;10.88;61.26
15604;BME280;7902;49.042;9.092;2023-02-02T09:30:43;99880.78;;;11.04;60.86
15604;BME280;7902;49.042;9.092;2023-02-02T09:33:08;99877.78;;;10.95;60.55
15604;BME280;7902;49.042;9.092;2023-02-02T09:35:34;99868.84;;;10.98;60.12
15604;BME280;7902;49.042;9.092;2023-02-02T09:38:00;99886.13;;;10.88;60.25
15604;BME280;7902;49.042;9.092;2023-02-02T09:40:26;99892.78;;;10.79;60.32
15604;BME280;7902;49.042;9.092;2023-02-02T09:43:13;99882.28;;;10.93;59.90
15604;BME280;7902;49.042;9.092;2023-02-02T09:45:55;99885.94;;;10.91;60.41
15604;BME280;7902;49.042;9.092;2023-02-02T09:48:41;99898.97;;;11.07;60.01
15604;BME280;7902;49.042;9.092;2023-02-02T09:51:16;99910.44;;;10.91;60.24
15604;BME280;7902;49.042;9.092;2023-02-02T09:53:50;99906.69;;;10.95;59.64
15604;BME280;7902;49.042;9.092;2023-02-02T09:56:28;99910.81;;;10.99;60.84
15604;BME280;7902;49.042;9.092;2023-02-02T09:59:00;99914.94;;;10.75;60.90
15604;BME280;7902;49.042;9.092;2023-02-02T10:01:30;99911.56;;;10.87;60.37
15604;BME280;7902;49.042;9.092;2023-02-02T10:04:00;99915.28;;;10.83;60.34
15604;BME280;7902;49.042;9.092;2023-02-02T10:06:41;99911.19;;;10.93;61.10
15604;BME280;7902;49.042;9.092;2023-02-02T10:14:45;99906.50;;;10.84;61.28
15604;BME280;7902;49.042;9.092;2023-02-02T10:17:39;99908.19;;;10.99;60.73
15604;BME280;7902;49.042;9.092;2023-02-02T10:22:55;99919.25;;;10.90;61.20
15604;BME280;7902;49.042;9.092;2023-02-02T10:25:25;99914.50;;;10.97;61.20
15604;BME280;7902;49.042;9.092;2023-02-02T10:28:05;99905.75;;;10.96;61.13
15604;BME280;7902;49.042;9.092;2023-02-02T10:30:44;99904.06;;;10.81;62.47
15604;BME280;7902;49.042;9.092;2023-02-02T10:33:20;99920.97;;;10.91;61.20
15604;BME280;7902;49.042;9.092;2023-02-02T10:35:58;99906.84;;;10.78;62.47
15604;BME280;7902;49.042;9.092;2023-02-02T10:38:37;99908.25;;;10.84;62.76
15604;BME280;7902;49.042;9.092;2023-02-02T10:41:25;99922.16;;;10.86;62.77
15604;BME280;7902;49.042;9.092;2023-02-02T10:44:16;99924.59;;;10.89;62.32
15604;BME280;7902;49.042;9.092;2023-02-02T10:46:51;99924.50;;;10.90;61.91
15604;BME280;7902;49.042;9.092;2023-02-02T10:51:59;99934.19;;;10.90;61.29
15604;BME280;7902;49.042;9.092;2023-02-02T10:57:11;99942.91;;;11.05;61.85
15604;BME280;7902;49.042;9.092;2023-02-02T10:59:46;99929.69;;;11.06;62.04
15604;BME280;7902;49.042;9.092;2023-02-02T11:02:15;99936.03;;;11.02;61.97
15604;BME280;7902;49.042;9.092;2023-02-02T11:04:41;99938.59;;;11.04;61.71
15604;BME280;7902;49.042;9.092;2023-02-02T11:07:25;99926.38;;;11.02;62.08
15604;BME280;7902;49.042;9.092;2023-02-02T11:09:51;99917.56;;;10.89;61.83
15604;BME280;7902;49.042;9.092;2023-02-02T11:15:07;99911.94;;;11.10;61.57
15604;BME280;7902;49.042;9.092;2023-02-02T11:17:46;99918.78;;;10.98;61.39
15604;BME280;7902;49.042;9.092;2023-02-02T11:20:30;99925.09;;;11.10;62.04
15604;BME280;7902;49.042;9.092;2023-02-02T11:23:04;99922.09;;;11.02;62.74
15604;BME280;7902;49.042;9.092;2023-02-02T11:25:33;99920.00;;;11.07;62.71
15604;BME280;7902;49.042;9.092;2023-02-02T11:28:11;99913.06;;;10.91;61.75
15604;BME280;7902;49.042;9.092;2023-02-02T11:30:46;99916.84;;;11.02;62.65
15604;BME280;7902;49.042;9.092;2023-02-02T11:33:34;99925.25;;;11.07;62.01
15604;BME280;7902;49.042;9.092;2023-02-02T11:36:33;99918.50;;;11.02;62.02
15604;BME280;7902;49.042;9.092;2023-02-02T11:39:17;99922.09;;;11.02;63.14
15604;BME280;7902;49.042;9.092;2023-02-02T11:41:44;99929.97;;;10.87;63.16
15604;BME280;7902;49.042;9.092;2023-02-02T11:44:22;99920.97;;;11.06;62.35
15604;BME280;7902;49.042;9.092;2023-02-02T11:46:50;99931.84;;;10.99;63.21
15604;BME280;7902;49.042;9.092;2023-02-02T11:49:18;99920.00;;;11.07;63.18
15604;BME280;7902;49.042;9.092;2023-02-02T11:52:05;99927.72;;;10.95;63.16
15604;BME280;7902;49.042;9.092;2023-02-02T11:54:36;99923.47;;;10.93;63.85
15604;BME280;7902;49.042;9.092;2023-02-02T11:57:06;99924.44;;;10.92;62.66
15604;BME280;7902;49.042;9.092;2023-02-02T11:59:44;99918.91;;;10.96;62.32
15604;BME280;7902;49.042;9.092;2023-02-02T12:04:46;99925.25;;;11.07;63.32
15604;BME280;7902;49.042;9.092;2023-02-02T12:09:50;99916.06;;;11.14;62.73
15604;BME280;7902;49.042;9.092;2023-02-02T12:12:26;99919.34;;;11.03;62.37
15604;BME280;7902;49.042;9.092;2023-02-02T12:17:43;99920.41;;;11.00;62.63
15604;BME280;7902;49.042;9.092;2023-02-02T12:31:21;99911.19;;;10.93;62.47
15604;BME280;7902;49.042;9.092;2023-02-02T12:34:04;99912.59;;;10.99;62.97
15604;BME280;7902;49.042;9.092;2023-02-02T12:36:48;99906.97;;;11.05;62.37
15604;BME280;7902;49.042;9.092;2023-02-02T12:50:30;99906.50;;;10.98;62.53
15604;BME280;7902;49.042;9.092;2023-02-02T13:04:34;99926.78;;;11.11;62.62
15604;BME280;7902;49.042;9.092;2023-02-02T13:12:43;99917.34;;;11.21;61.28
15604;BME280;7902;49.042;9.092;2023-02-02T13:15:16;99903.41;;;11.06;62.38
15604;BME280;7902;49.042;9.092;2023-02-02T13:17:53;99916.63;;;11.19;61.35
15604;BME280;7902;49.042;9.092;2023-02-02T13:23:24;99923.03;;;11.15;62.04
15604;BME280;7902;49.042;9.092;2023-02-02T13:25:59;99922.91;;;11.16;61.00
15604;BME280;7902;49.042;9.092;2023-02-02T13:28:37;99933.53;;;11.29;61.99
15604;BME280;7902;49.042;9.092;2023-02-02T13:31:12;99936.25;;;11.13;61.29
15604;BME280;7902;49.042;9.092;2023-02-02T13:33:40;99924.31;;;11.22;61.78
15604;BME280;7902;49.042;9.092;2023-02-02T13:36:16;99931.00;;;11.13;62.16
15604;BME280;7902;49.042;9.092;2023-02-02T13:38:54;99933.91;;;11.09;61.97
15604;BME280;7902;49.042;9.092;2023-02-02T13:41:23;99949.75;;;11.07;62.20
15604;BME280;7902;49.042;9.092;2023-02-02T13:44:46;99947.59;;;11.14;61.31
15604;BME280;7902;49.042;9.092;2023-02-02T13:46:51;99956.13;;;11.03;62.26
15604;BME280;7902;49.042;9.092;2023-02-02T13:49:24;99956.25;;;11.16;61.74
15604;BME280;7902;49.042;9.092;2023-02-02T13:52:28;99963.00;;;11.20;61.57
15604;BME280;7902;49.042;9.092;2023-02-02T14:00:33;99956.06;;;11.05;61.84
15604;BME280;7902;49.042;9.092;2023-02-02T14:03:03;99964.59;;;11.08;60.99
15604;BME280;7902;49.042;9.092;2023-02-02T14:05:33;99966.56;;;11.05;61.15
15604;BME280;7902;49.042;9.092;2023-02-02T14:08:04;99949.66;;;11.09;62.11
15604;BME280;7902;49.042;9.092;2023-02-02T14:10:37;99953.22;;;11.08;61.95
15604;BME280;7902;49.042;9.092;2023-02-02T14:18:59;99955.50;;;11.28;61.40
15604;BME280;7902;49.042;9.092;2023-02-02T14:26:50;99958.88;;;11.16;61.07
15604;BME280;7902;49.042;9.092;2023-02-02T14:34:47;99973.25;;;11.10;60.50
15604;BME280;7902;49.042;9.092;2023-02-02T14:40:07;99975.59;;;11.29;60.68
15604;BME280;7902;49.042;9.092;2023-02-02T14:45:47;99968.06;;;11.23;61.17
15604;BME280;7902;49.042;9.092;2023-02-02T14:48:20;99970.50;;;11.26;60.61
15604;BME280;7902;49.042;9.092;2023-02-02T14:50:54;99980.56;;;11.19;60.59
15604;BME280;7902;49.042;9.092;2023-02-02T14:55:59;99986.00;;;11.30;60.17
15604;BME280;7902;49.042;9.092;2023-02-02T14:58:38;99988.34;;;11.21;60.43
15604;BME280;7902;49.042;9.092;2023-02-02T15:25:50;100027.06;;;11.33;59.53
15604;BME280;7902;49.042;9.092;2023-02-02T15:31:06;100026.66;;;11.11;59.77
15604;BME280;7902;49.042;9.092;2023-02-02T15:33:38;100023.06;;;11.12;60.12
15604;BME280;7902;49.042;9.092;2023-02-02T15:38:47;100044.59;;;11.18;59.03
15604;BME280;7902;49.042;9.092;2023-02-02T15:41:27;100044.69;;;11.17;59.49
15604;BME280;7902;49.042;9.092;2023-02-02T15:43:58;100050.22;;;11.12;59.66
15604;BME280;7902;49.042;9.092;2023-02-02T15:46:27;100051.53;;;11.19;59.89
15604;BME280;7902;49.042;9.092;2023-02-02T15:51:46;100064.22;;;11.27;58.93
15604;BME280;7902;49.042;9.092;2023-02-02T15:54:22;100053.97;;;11.22;58.89
15604;BME280;7902;49.042;9.092;2023-02-02T15:56:48;100061.22;;;11.33;58.95